Time;durP1;ratioP1;P1;durP2;ratioP2;P2;SDS_P1;SDS_P2;PMS_P1;PMS_P2;Temp;Humidity;BMP_temperature;BMP_pressure;BME280_temperature;BME280_humidity;BME280_pressure;Samples;Min_cycle;Max_cycle;Signal;HPM_P1;HPM_P2
2022/08/07 00:01:03;;;;;;;4.32;3.67;;;13.50;99.90;;;;;;5009471;28;20045;-77
2022/08/07 00:03:29;;;;;;;5.32;4.70;;;13.50;99.90;;;;;;5010166;28;20044;-77
2022/08/07 00:05:55;;;;;;;4.60;4.30;;;13.40;99.90;;;;;;5044127;28;20037;-77
2022/08/07 00:08:24;;;;;;;5.28;4.78;;;13.50;99.90;;;;;;5041882;28;20090;-77
2022/08/07 00:10:50;;;;;;;4.90;4.40;;;13.40;99.90;;;;;;5019332;28;20037;-77
2022/08/07 00:13:17;;;;;;;5.63;4.57;;;13.30;99.90;;;;;;5026983;28;20049;-77
2022/08/07 00:15:44;;;;;;;4.43;4.13;;;13.20;99.90;;;;;;5047429;28;20520;-77
2022/08/07 00:18:10;;;;;;;6.65;4.40;;;13.20;99.90;;;;;;5029969;28;20033;-77
2022/08/07 00:20:37;;;;;;;4.80;4.40;;;13.20;99.90;;;;;;5044041;28;20045;-77
2022/08/07 00:23:05;;;;;;;5.03;4.45;;;13.20;99.90;;;;;;5042680;28;20037;-77
2022/08/07 00:25:35;;;;;;;4.47;4.07;;;13.20;99.90;;;;;;5047752;28;20041;-77
2022/08/07 00:28:00;;;;;;;4.43;4.03;;;13.40;99.90;;;;;;5045751;28;20036;-77
2022/08/07 00:30:26;;;;;;;4.32;3.80;;;13.10;99.90;;;;;;5037869;28;20038;-77
2022/08/07 00:32:52;;;;;;;4.13;3.83;;;13.20;99.90;;;;;;5051755;28;20124;-77
2022/08/07 00:35:19;;;;;;;4.32;4.03;;;13.10;99.90;;;;;;5030852;28;20045;-76
2022/08/07 00:37:45;;;;;;;3.92;3.60;;;13.10;99.90;;;;;;5029575;28;20131;-77
2022/08/07 00:40:12;;;;;;;5.30;4.72;;;13.40;99.90;;;;;;5048181;28;20120;-77
2022/08/07 00:42:38;;;;;;;4.75;4.35;;;13.20;99.90;;;;;;5046477;28;20049;-77
2022/08/07 00:45:04;;;;;;;5.22;4.72;;;13.20;99.90;;;;;;5047098;28;20442;-76
2022/08/07 00:47:30;;;;;;;4.93;4.50;;;13.20;99.90;;;;;;5037931;28;20052;-77
2022/08/07 00:49:56;;;;;;;6.72;4.78;;;13.40;99.90;;;;;;5040841;28;20125;-77
2022/08/07 00:52:22;;;;;;;5.30;4.57;;;13.10;99.90;;;;;;5046733;28;20075;-76
2022/08/07 00:54:48;;;;;;;5.13;4.63;;;13.10;99.90;;;;;;5047501;28;20051;-76
2022/08/07 00:57:15;;;;;;;5.57;5.07;;;13.10;99.90;;;;;;5039165;28;20436;-77
2022/08/07 00:59:41;;;;;;;5.47;4.80;;;13.00;99.90;;;;;;5049265;28;20083;-77
2022/08/07 01:02:08;;;;;;;4.97;4.57;;;13.50;99.90;;;;;;5041898;28;20037;-77
2022/08/07 01:04:34;;;;;;;5.07;4.68;;;13.10;99.90;;;;;;5045607;28;20141;-77
2022/08/07 01:07:00;;;;;;;5.75;5.13;;;13.10;99.90;;;;;;5044442;28;20119;-77
2022/08/07 01:09:26;;;;;;;6.40;5.32;;;13.00;99.90;;;;;;5047069;28;20037;-77
2022/08/07 01:11:51;;;;;;;5.57;4.93;;;12.90;99.90;;;;;;5006566;28;20097;-76
2022/08/07 01:14:22;;;;;;;5.38;4.65;;;12.90;99.90;;;;;;5046884;28;20396;-76
2022/08/07 01:16:48;;;;;;;6.10;5.55;;;13.50;99.90;;;;;;5046555;28;20044;-76
2022/08/07 01:19:15;;;;;;;5.03;4.63;;;12.90;99.90;;;;;;5046304;28;20037;-76
2022/08/07 01:21:41;;;;;;;5.32;4.82;;;12.90;99.90;;;;;;5046610;28;20048;-77
2022/08/07 01:24:08;;;;;;;6.07;5.43;;;12.90;99.90;;;;;;5046959;28;20047;-76
2022/08/07 01:26:34;;;;;;;6.38;5.53;;;12.90;99.90;;;;;;5011473;28;20469;-77
2022/08/07 01:29:00;;;;;;;7.50;5.10;;;12.80;99.90;;;;;;5046866;28;20033;-77
2022/08/07 01:31:32;;;;;;;5.53;5.05;;;12.80;99.90;;;;;;5042757;28;20128;-77
2022/08/07 01:33:59;;;;;;;6.10;5.50;;;12.70;99.90;;;;;;5012081;28;20044;-77
2022/08/07 01:36:27;;;;;;;5.47;5.05;;;13.30;99.90;;;;;;5045209;28;20044;-76
2022/08/07 01:38:53;;;;;;;5.80;4.50;;;12.60;99.90;;;;;;5047951;28;20064;-77
2022/08/07 01:41:20;;;;;;;5.40;4.90;;;12.60;99.90;;;;;;5033611;28;20033;-77
2022/08/07 01:43:48;;;;;;;7.30;5.55;;;12.60;99.90;;;;;;5043119;28;20135;-77
2022/08/07 01:46:15;;;;;;;5.88;5.28;;;12.60;99.90;;;;;;5043203;28;20053;-76
2022/08/07 01:48:42;;;;;;;5.22;4.82;;;12.50;99.90;;;;;;5046233;28;20036;-77
2022/08/07 01:51:10;;;;;;;5.47;4.97;;;12.50;99.90;;;;;;5046228;28;20378;-77
2022/08/07 01:53:41;;;;;;;5.25;4.85;;;12.50;99.90;;;;;;5040336;28;20121;-77
2022/08/07 01:56:13;;;;;;;5.38;4.93;;;12.60;99.90;;;;;;5045658;28;20063;-76
2022/08/07 01:58:47;;;;;;;6.10;5.00;;;12.50;99.90;;;;;;5027989;28;20049;-78
2022/08/07 02:01:18;;;;;;;5.38;4.90;;;12.50;99.90;;;;;;5029106;28;20045;-77
2022/08/07 02:03:49;;;;;;;7.53;5.20;;;12.40;99.90;;;;;;5045175;28;20045;-77
2022/08/07 02:06:18;;;;;;;5.80;5.03;;;12.40;99.90;;;;;;5049518;28;20053;-77
2022/08/07 02:08:46;;;;;;;5.72;5.22;;;12.70;99.90;;;;;;5039389;28;20045;-77
2022/08/07 02:11:12;;;;;;;6.10;5.50;;;12.90;99.90;;;;;;5047055;28;20040;-76
2022/08/07 02:13:41;;;;;;;7.45;5.63;;;12.40;99.90;;;;;;5047534;28;20528;-77
2022/08/07 02:16:08;;;;;;;6.35;5.85;;;12.40;99.90;;;;;;5041306;28;20665;-77
2022/08/07 02:18:36;;;;;;;8.15;5.80;;;12.40;99.90;;;;;;5053533;28;20036;-77
2022/08/07 02:21:04;;;;;;;7.03;5.40;;;12.40;99.90;;;;;;5047266;28;20047;-77
2022/08/07 02:23:33;;;;;;;6.18;5.55;;;12.30;99.90;;;;;;5029512;28;20049;-76
2022/08/07 02:26:02;;;;;;;5.13;4.72;;;12.30;99.90;;;;;;5048694;28;20048;-76
2022/08/07 02:28:29;;;;;;;4.78;4.35;;;12.30;99.90;;;;;;5049304;28;20075;-76
2022/08/07 02:30:57;;;;;;;5.32;4.78;;;12.20;99.90;;;;;;5049187;28;20425;-77
2022/08/07 02:33:25;;;;;;;5.28;4.78;;;12.30;99.90;;;;;;5047810;28;20041;-78
2022/08/07 02:35:52;;;;;;;4.97;4.57;;;12.30;99.90;;;;;;5031450;28;20049;-76
2022/08/07 02:38:20;;;;;;;5.22;4.82;;;12.20;99.90;;;;;;5050057;28;20056;-78
2022/08/07 02:40:46;;;;;;;4.80;4.40;;;12.20;99.90;;;;;;5049603;28;20124;-77
2022/08/07 02:43:14;;;;;;;6.68;5.00;;;12.20;99.90;;;;;;5047732;28;20033;-77
2022/08/07 02:45:41;;;;;;;5.45;4.95;;;12.20;99.90;;;;;;5017819;28;20045;-77
2022/08/07 02:48:08;;;;;;;5.72;5.13;;;12.10;99.90;;;;;;5039490;28;20112;-77
2022/08/07 02:50:38;;;;;;;5.10;4.70;;;12.10;99.90;;;;;;5020578;28;20054;-77
2022/08/07 02:53:10;;;;;;;5.63;5.13;;;12.10;99.90;;;;;;5042570;28;20440;-78
2022/08/07 02:55:42;;;;;;;6.18;5.57;;;12.60;99.90;;;;;;5034802;28;20052;-77
2022/08/07 02:58:12;;;;;;;6.13;4.95;;;12.00;99.90;;;;;;5043133;28;20071;-76
2022/08/07 03:00:40;;;;;;;6.65;5.18;;;12.00;99.90;;;;;;5045852;28;20033;-78
2022/08/07 03:03:08;;;;;;;6.20;5.60;;;12.00;99.90;;;;;;5048317;28;20053;-77
2022/08/07 03:05:35;;;;;;;4.72;4.43;;;12.00;99.90;;;;;;5045940;28;20531;-77
2022/08/07 03:08:03;;;;;;;7.13;5.05;;;12.00;99.90;;;;;;5028774;28;20497;-76
2022/08/07 03:10:29;;;;;;;5.38;4.95;;;11.90;99.90;;;;;;5045102;28;20396;-77
2022/08/07 03:12:56;;;;;;;5.72;5.18;;;12.00;99.90;;;;;;5043166;28;20045;-77
2022/08/07 03:15:22;;;;;;;6.93;4.78;;;12.00;99.90;;;;;;5046064;28;20488;-77
2022/08/07 03:17:48;;;;;;;5.47;4.97;;;12.00;99.90;;;;;;5042526;28;20417;-77
2022/08/07 03:20:14;;;;;;;5.78;5.18;;;11.90;99.90;;;;;;5046307;28;20041;-77
2022/08/07 03:22:41;;;;;;;5.25;4.68;;;11.90;99.90;;;;;;5039606;28;20404;-77
2022/08/07 03:25:07;;;;;;;6.00;5.50;;;12.80;99.90;;;;;;5042972;28;20044;-77
2022/08/07 03:27:33;;;;;;;7.18;5.03;;;11.80;99.90;;;;;;5031062;28;20085;-77
2022/08/07 03:30:00;;;;;;;5.60;5.00;;;12.30;99.90;;;;;;5046461;28;20301;-77
2022/08/07 03:32:32;;;;;;;5.85;4.63;;;11.80;99.90;;;;;;5037839;28;20051;-77
2022/08/07 03:35:01;;;;;;;6.03;5.05;;;11.80;99.90;;;;;;5042133;28;20045;-76
2022/08/07 03:37:31;;;;;;;6.10;5.38;;;11.70;99.90;;;;;;5029823;28;20115;-77
2022/08/07 03:39:58;;;;;;;6.32;4.95;;;11.90;99.90;;;;;;5025467;28;20072;-76
2022/08/07 03:42:24;;;;;;;5.28;4.72;;;11.50;99.90;;;;;;5049037;28;20045;-76
2022/08/07 03:44:51;;;;;;;7.20;4.80;;;11.70;99.90;;;;;;5049410;28;20032;-76
2022/08/07 03:47:17;;;;;;;5.68;5.18;;;11.60;99.90;;;;;;5045817;28;20059;-76
2022/08/07 03:49:43;;;;;;;6.07;5.00;;;12.00;99.90;;;;;;5046005;28;20048;-76
2022/08/07 03:52:10;;;;;;;5.25;4.75;;;11.60;99.90;;;;;;5046655;28;20053;-76
2022/08/07 03:54:36;;;;;;;5.97;5.30;;;11.50;99.90;;;;;;5044138;28;20535;-76
2022/08/07 03:57:04;;;;;;;5.70;5.15;;;11.50;99.90;;;;;;5030479;28;20037;-77
2022/08/07 03:59:31;;;;;;;6.60;4.43;;;11.50;99.90;;;;;;5046461;28;20060;-77
2022/08/07 04:01:57;;;;;;;5.85;5.25;;;11.40;99.90;;;;;;5041121;28;20041;-76
2022/08/07 04:04:23;;;;;;;5.70;4.70;;;11.40;99.90;;;;;;5048100;28;20084;-77
2022/08/07 04:06:50;;;;;;;4.38;4.00;;;11.50;99.90;;;;;;5048648;28;20045;-77
2022/08/07 04:09:16;;;;;;;5.93;5.43;;;11.50;99.90;;;;;;5040236;28;20060;-76
2022/08/07 04:11:45;;;;;;;5.90;5.13;;;11.50;99.90;;;;;;5042760;28;20068;-77
2022/08/07 04:14:11;;;;;;;5.13;4.72;;;11.90;99.90;;;;;;5046732;28;20041;-76
2022/08/07 04:16:37;;;;;;;4.97;4.45;;;11.50;99.90;;;;;;5047308;28;20037;-76
2022/08/07 04:19:04;;;;;;;5.05;4.65;;;11.50;99.90;;;;;;5042334;28;20443;-77
2022/08/07 04:21:30;;;;;;;5.18;4.78;;;11.50;99.90;;;;;;5044145;28;20491;-77
2022/08/07 04:23:57;;;;;;;6.32;4.88;;;12.00;99.90;;;;;;5043894;28;20072;-77
2022/08/07 04:26:23;;;;;;;5.18;4.65;;;11.60;99.90;;;;;;5039107;28;20429;-77
2022/08/07 04:28:49;;;;;;;4.80;4.28;;;12.50;99.90;;;;;;5045627;28;20049;-77
2022/08/07 04:31:15;;;;;;;4.88;4.47;;;11.90;99.90;;;;;;5042469;28;20063;-77
2022/08/07 04:33:41;;;;;;;5.15;4.65;;;11.60;99.90;;;;;;5043997;28;20037;-77
2022/08/07 04:36:07;;;;;;;5.90;5.30;;;11.50;99.90;;;;;;5047780;28;20551;-77
2022/08/07 04:38:35;;;;;;;5.10;4.60;;;11.40;99.90;;;;;;5048184;28;20045;-76
2022/08/07 04:41:01;;;;;;;6.93;4.90;;;11.40;99.90;;;;;;5029021;28;20135;-77
2022/08/07 04:43:34;;;;;;;4.43;4.03;;;11.40;99.90;;;;;;5045337;28;20523;-77
2022/08/07 04:46:30;;;;;;;3.85;3.55;;;11.40;99.90;;;;;;5029659;28;20117;-77
2022/08/07 04:49:19;;;;;;;4.60;4.20;;;11.40;99.90;;;;;;5043215;28;20090;-76
2022/08/07 04:52:13;;;;;;;4.40;4.00;;;11.50;99.90;;;;;;5044251;28;20099;-77
2022/08/07 04:55:00;;;;;;;4.65;3.95;;;11.50;99.90;;;;;;5042398;28;20607;-77
2022/08/07 04:57:45;;;;;;;7.10;4.32;;;11.60;99.90;;;;;;5024931;28;20076;-76
2022/08/07 05:00:16;;;;;;;4.80;4.30;;;11.60;99.90;;;;;;5011717;28;20489;-77
2022/08/07 05:02:52;;;;;;;5.18;4.65;;;11.60;99.90;;;;;;5025475;28;20051;-77
2022/08/07 05:05:27;;;;;;;9.82;4.45;;;11.70;99.90;;;;;;5036548;28;20065;-76
2022/08/07 05:08:11;;;;;;;5.20;4.72;;;11.60;99.90;;;;;;5045618;28;20045;-77
2022/08/07 05:10:46;;;;;;;4.40;4.00;;;11.60;99.90;;;;;;5032301;28;20060;-78
2022/08/07 05:13:30;;;;;;;5.22;4.40;;;11.70;99.90;;;;;;5045804;28;20627;-77
2022/08/07 05:15:58;;;;;;;4.25;3.85;;;11.70;99.90;;;;;;5042231;28;20044;-77
2022/08/07 05:18:29;;;;;;;4.55;4.03;;;11.70;99.90;;;;;;5043382;28;20718;-77
2022/08/07 05:21:01;;;;;;;7.40;4.90;;;11.70;99.90;;;;;;5044193;28;20098;-77
2022/08/07 05:24:09;;;;;;;6.10;4.57;;;11.80;99.90;;;;;;5030800;28;20308;-76
2022/08/07 05:26:36;;;;;;;4.88;4.40;;;11.80;99.90;;;;;;4965502;28;20084;-78
2022/08/07 05:29:05;;;;;;;5.25;4.65;;;11.90;99.90;;;;;;4962959;28;20134;-78
2022/08/07 05:31:33;;;;;;;5.07;4.57;;;12.00;99.90;;;;;;5005281;28;20049;-78
2022/08/07 05:34:01;;;;;;;7.18;5.15;;;12.20;99.90;;;;;;5027969;28;20392;-77
2022/08/07 05:36:28;;;;;;;4.90;4.50;;;12.10;99.90;;;;;;5049569;28;20132;-77
2022/08/07 05:38:58;;;;;;;7.65;5.30;;;12.20;99.90;;;;;;5026566;28;20393;-75
2022/08/07 05:41:24;;;;;;;8.93;6.28;;;12.20;99.90;;;;;;5036199;28;20530;-77
2022/08/07 05:43:54;;;;;;;5.93;5.28;;;13.00;99.90;;;;;;5042956;28;20052;-77
2022/08/07 05:46:21;;;;;;;7.28;6.10;;;12.30;99.90;;;;;;5051053;28;20131;-74
2022/08/07 05:48:49;;;;;;;5.28;4.78;;;12.40;99.90;;;;;;5047523;28;20051;-76
2022/08/07 05:51:17;;;;;;;8.50;5.38;;;13.10;99.90;;;;;;5044305;28;20061;-75
2022/08/07 05:53:44;;;;;;;5.32;4.82;;;12.50;99.90;;;;;;5049107;28;20037;-75
2022/08/07 05:56:12;;;;;;;6.68;4.97;;;12.50;99.90;;;;;;5032890;28;20041;-76
2022/08/07 05:58:45;;;;;;;7.07;4.95;;;12.80;99.90;;;;;;5031488;28;20110;-77
2022/08/07 06:01:13;;;;;;;5.97;5.22;;;13.50;99.90;;;;;;5039324;28;20048;-77
2022/08/07 06:03:40;;;;;;;6.90;5.20;;;12.70;99.90;;;;;;5043641;28;20041;-76
2022/08/07 06:06:06;;;;;;;5.25;4.75;;;12.70;99.90;;;;;;5043767;28;20037;-76
2022/08/07 06:08:32;;;;;;;6.40;5.80;;;12.80;99.90;;;;;;5050910;28;20043;-76
2022/08/07 06:10:59;;;;;;;5.88;5.38;;;12.80;99.90;;;;;;5035688;28;20033;-75
2022/08/07 06:13:24;;;;;;;7.53;5.13;;;13.40;99.90;;;;;;5048620;28;20428;-76
2022/08/07 06:15:53;;;;;;;5.97;5.38;;;13.00;99.90;;;;;;5027445;28;20056;-76
2022/08/07 06:18:20;;;;;;;7.25;5.80;;;13.10;99.90;;;;;;5048886;28;20316;-76
2022/08/07 06:20:46;;;;;;;5.80;5.30;;;13.10;99.90;;;;;;5054254;28;20037;-75
2022/08/07 06:23:12;;;;;;;6.72;5.97;;;13.90;99.90;;;;;;5047724;28;20052;-77
2022/08/07 06:25:40;;;;;;;9.27;6.55;;;13.30;99.90;;;;;;5049148;28;20087;-76
2022/08/07 06:28:08;;;;;;;6.30;5.70;;;13.30;99.90;;;;;;5026679;28;20092;-78
2022/08/07 06:30:34;;;;;;;8.88;6.00;;;13.40;99.90;;;;;;5042452;28;20037;-77
2022/08/07 06:33:00;;;;;;;8.60;5.78;;;13.50;99.90;;;;;;5045689;28;20049;-76
2022/08/07 06:35:26;;;;;;;5.50;5.00;;;13.50;99.90;;;;;;5044353;28;20048;-79
2022/08/07 06:37:53;;;;;;;5.30;4.80;;;14.20;99.90;;;;;;4343055;28;10000765;-78
2022/08/07 06:40:19;;;;;;;6.18;5.57;;;13.70;99.90;;;;;;5019821;28;20311;-80
2022/08/07 06:42:50;;;;;;;7.57;5.72;;;13.80;99.90;;;;;;5045053;28;20374;-80
2022/08/07 06:45:19;;;;;;;7.03;6.32;;;13.90;99.90;;;;;;5046158;28;20040;-79
2022/08/07 06:47:46;;;;;;;6.57;5.95;;;14.10;99.90;;;;;;5044074;28;20798;-78
2022/08/07 06:50:12;;;;;;;7.75;6.00;;;14.20;99.90;;;;;;5046543;28;20616;-77
2022/08/07 06:52:41;;;;;;;7.00;6.07;;;14.30;99.90;;;;;;5031475;28;20056;-81
2022/08/07 06:55:21;;;;;;;6.45;5.60;;;14.60;99.90;;;;;;5027014;28;20080;-80
2022/08/07 06:57:48;;;;;;;7.82;5.57;;;14.60;99.90;;;;;;5040652;28;20041;-79
2022/08/07 07:00:15;;;;;;;6.68;4.72;;;14.50;99.90;;;;;;5037187;28;20484;-78
2022/08/07 07:02:42;;;;;;;5.70;5.20;;;14.60;99.90;;;;;;5047131;28;20087;-78
2022/08/07 07:05:08;;;;;;;5.45;4.95;;;14.70;99.90;;;;;;5043185;28;20611;-78
2022/08/07 07:07:34;;;;;;;5.03;4.53;;;14.80;99.90;;;;;;5046027;28;20115;-78
2022/08/07 07:09:59;;;;;;;4.85;4.03;;;14.90;99.90;;;;;;5036952;28;20183;-79
2022/08/07 07:12:44;;;;;;;9.50;5.45;;;15.00;99.90;;;;;;5013963;28;20049;-77
2022/08/07 07:15:20;;;;;;;5.10;4.50;;;15.10;99.90;;;;;;5043057;28;20209;-78
2022/08/07 07:18:01;;;;;;;9.10;4.60;;;15.20;99.90;;;;;;5026339;28;20046;-77
2022/08/07 07:20:42;;;;;;;8.38;3.72;;;15.20;99.90;;;;;;5047388;28;20105;-76
2022/08/07 07:23:09;;;;;;;4.10;3.80;;;15.30;99.90;;;;;;5047455;28;20114;-77
2022/08/07 07:25:38;;;;;;;3.55;3.25;;;15.40;99.90;;;;;;5044242;28;20108;-78
2022/08/07 07:28:17;;;;;;;6.07;3.97;;;15.60;99.90;;;;;;5048069;28;20501;-76
2022/08/07 07:30:50;;;;;;;5.47;3.70;;;15.50;99.90;;;;;;5040905;28;20082;-79
2022/08/07 07:33:18;;;;;;;4.28;3.17;;;15.60;99.90;;;;;;5027462;28;20040;-77
2022/08/07 07:35:47;;;;;;;3.97;2.88;;;15.60;99.90;;;;;;5047811;28;20619;-76
2022/08/07 07:38:17;;;;;;;3.13;2.90;;;15.60;99.90;;;;;;5024213;28;20099;-78
2022/08/07 07:40:45;;;;;;;3.80;2.97;;;16.30;99.90;;;;;;5026769;28;20048;-82
2022/08/07 07:43:14;;;;;;;3.28;2.97;;;15.80;99.90;;;;;;5031564;28;20033;-76
2022/08/07 07:45:40;;;;;;;3.97;3.67;;;15.90;99.90;;;;;;5030114;28;20409;-75
2022/08/07 07:48:11;;;;;;;4.47;3.85;;;15.90;99.90;;;;;;5046441;28;20072;-76
2022/08/07 07:50:41;;;;;;;5.00;3.70;;;16.00;99.90;;;;;;5047286;28;20052;-78
2022/08/07 07:53:08;;;;;;;4.90;4.03;;;16.10;99.90;;;;;;5049855;28;20037;-76
2022/08/07 07:55:34;;;;;;;8.63;3.90;;;16.20;99.90;;;;;;5049887;28;20492;-78
2022/08/07 07:58:01;;;;;;;4.07;3.67;;;16.20;99.90;;;;;;5045679;28;20442;-78
2022/08/07 08:00:28;;;;;;;4.32;3.90;;;17.20;99.90;;;;;;5042520;28;20033;-78
2022/08/07 08:02:58;;;;;;;4.07;3.70;;;16.70;99.90;;;;;;5046613;28;20391;-77
2022/08/07 08:05:24;;;;;;;7.47;4.45;;;16.30;99.90;;;;;;5047333;28;20493;-78
2022/08/07 08:07:50;;;;;;;4.78;3.75;;;16.50;99.90;;;;;;5047064;28;20112;-77
2022/08/07 08:10:18;;;;;;;6.18;3.90;;;17.00;99.90;;;;;;5048187;28;20045;-76
2022/08/07 08:12:45;;;;;;;4.40;3.67;;;16.50;99.90;;;;;;5028378;28;20076;-78
2022/08/07 08:15:11;;;;;;;3.92;3.50;;;16.50;99.90;;;;;;5048343;28;20511;-76
2022/08/07 08:17:37;;;;;;;6.53;3.72;;;16.70;99.90;;;;;;5021813;28;20041;-76
2022/08/07 08:20:06;;;;;;;4.70;3.72;;;16.70;99.90;;;;;;5031594;28;20126;-77
2022/08/07 08:28:19;;;;;;;4.32;3.92;;;16.90;99.90;;;;;;5048057;28;20048;-78
2022/08/07 08:30:45;;;;;;;5.97;3.85;;;17.40;99.90;;;;;;5048025;28;20532;-78
2022/08/07 08:33:17;;;;;;;4.68;4.10;;;17.00;99.90;;;;;;5048170;28;20520;-77
2022/08/07 08:35:47;;;;;;;4.13;3.35;;;17.30;99.90;;;;;;5030485;28;20045;-77
2022/08/07 08:38:16;;;;;;;3.70;3.40;;;17.10;99.90;;;;;;5043921;28;20068;-79
2022/08/07 08:41:05;;;;;;;3.58;2.90;;;17.20;99.90;;;;;;5044138;28;20432;-77
2022/08/07 08:43:43;;;;;;;4.53;3.08;;;17.20;99.90;;;;;;5027476;28;20175;-81
2022/08/07 08:46:17;;;;;;;4.97;3.17;;;17.20;99.90;;;;;;5042491;28;20056;-82
2022/08/07 08:48:54;;;;;;;6.72;3.50;;;17.10;99.90;;;;;;5048023;28;20171;-80
2022/08/07 08:51:44;;;;;;;7.25;3.58;;;17.70;99.90;;;;;;5046447;28;20048;-82
2022/08/07 08:54:30;;;;;;;7.43;3.53;;;17.20;99.90;;;;;;5048252;28;20040;-79
2022/08/07 08:57:00;;;;;;;4.13;3.70;;;17.30;99.90;;;;;;5038705;28;20340;-82
2022/08/07 08:59:28;;;;;;;4.30;3.17;;;17.30;99.90;;;;;;5047593;28;20485;-82
2022/08/07 09:02:23;;;;;;;3.40;3.10;;;17.30;99.90;;;;;;5048330;28;20128;-81
2022/08/07 09:05:17;;;;;;;3.30;3.00;;;17.40;99.90;;;;;;5045401;28;20136;-81
2022/08/07 09:08:08;;;;;;;3.35;2.95;;;17.40;99.90;;;;;;5042390;28;20048;-81
2022/08/07 09:10:43;;;;;;;289.77;24.67;;;17.50;99.90;;;;;;5045744;28;20045;-73
2022/08/07 09:13:18;;;;;;;112.32;12.02;;;18.20;99.90;;;;;;5048029;28;20111;-73
2022/08/07 09:15:56;;;;;;;82.78;8.90;;;17.80;99.90;;;;;;5041278;28;20130;-73
2022/08/07 09:18:54;;;;;;;10.32;3.20;;;17.90;99.90;;;;;;5044018;28;20052;-73
2022/08/07 09:21:39;;;;;;;34.30;4.82;;;17.90;99.90;;;;;;5048537;28;20071;-77
2022/08/07 09:24:25;;;;;;;2.72;2.50;;;17.90;99.90;;;;;;5050283;28;20516;-78
2022/08/07 09:27:18;;;;;;;2.47;2.37;;;17.90;99.90;;;;;;5050021;28;20090;-79
2022/08/07 09:29:47;;;;;;;3.03;2.70;;;18.00;99.90;;;;;;5008400;28;20049;-78
2022/08/07 09:32:34;;;;;;;3.75;2.58;;;18.00;99.90;;;;;;5049581;28;20481;-79
2022/08/07 09:35:18;;;;;;;4.38;2.85;;;17.90;99.90;;;;;;5058138;28;20175;-78
2022/08/07 09:37:54;;;;;;;2.95;2.15;;;18.10;99.90;;;;;;5025281;28;20041;-79
2022/08/07 09:40:34;;;;;;;4.13;2.83;;;18.10;99.90;;;;;;5047820;28;20052;-79
2022/08/07 09:43:24;;;;;;;3.47;2.45;;;18.10;99.90;;;;;;5044107;28;20068;-78
2022/08/07 09:46:16;;;;;;;108.57;13.25;;;18.20;99.90;;;;;;5044958;28;20041;-73
2022/08/07 09:48:47;;;;;;;16.70;3.58;;;18.30;99.90;;;;;;5036043;28;20045;-73
2022/08/07 09:51:50;;;;;;;53.28;6.60;;;18.40;99.90;;;;;;4348121;28;10000678;-72
2022/08/07 09:54:41;;;;;;;20.25;3.85;;;18.50;99.90;;;;;;5025834;28;20582;-78
2022/08/07 09:57:35;;;;;;;7.55;2.80;;;18.60;99.90;;;;;;5025293;28;20127;-76
2022/08/07 10:00:11;;;;;;;5.15;2.55;;;18.70;99.90;;;;;;5044743;28;20442;-75
2022/08/07 10:03:14;;;;;;;5.10;2.38;;;18.70;99.90;;;;;;5045255;28;20073;-73
2022/08/07 10:05:55;;;;;;;2.80;1.98;;;18.80;99.90;;;;;;5044221;28;20128;-74
2022/08/07 10:08:55;;;;;;;4.22;2.22;;;18.80;99.90;;;;;;5042799;28;20089;-75
2022/08/07 10:11:43;;;;;;;2.42;1.60;;;18.90;99.90;;;;;;5025297;28;20049;-74
2022/08/07 10:14:20;;;;;;;2.30;1.90;;;18.90;99.90;;;;;;5043322;28;20083;-74
2022/08/07 10:17:17;;;;;;;4.22;2.30;;;19.00;99.90;;;;;;5020276;28;20076;-73
2022/08/07 10:20:07;;;;;;;3.85;2.10;;;19.10;99.90;;;;;;5038178;28;20049;-76
2022/08/07 10:22:32;;;;;;;2.50;2.30;;;19.20;99.90;;;;;;5023448;28;20045;-73
2022/08/07 10:25:25;;;;;;;2.60;2.40;;;19.30;99.90;;;;;;5051365;28;20033;-75
2022/08/07 10:28:50;;;;;;;1.80;1.58;;;19.30;99.90;;;;;;5046725;28;20374;-73
2022/08/07 10:31:21;;;;;;;4.10;1.92;;;19.30;99.90;;;;;;4949233;28;20047;-78
2022/08/07 10:33:55;;;;;;;2.53;1.38;;;19.40;99.90;;;;;;5015793;28;20373;-76
2022/08/07 10:36:55;;;;;;;3.60;1.33;;;19.40;99.90;;;;;;5048980;28;20045;-74
2022/08/07 10:40:00;;;;;;;2.88;1.30;;;19.50;99.90;;;;;;5031322;28;20445;-74
2022/08/07 10:42:46;;;;;;;1.63;1.35;;;19.60;99.90;;;;;;5050560;28;20057;-75
2022/08/07 10:45:25;;;;;;;4.88;1.40;;;19.60;99.90;;;;;;5029016;28;20041;-74
2022/08/07 10:48:23;;;;;;;4.80;1.50;;;19.70;99.90;;;;;;5048460;28;20561;-73
2022/08/07 10:51:00;;;;;;;2.00;1.30;;;19.50;99.90;;;;;;5046180;28;20051;-72
2022/08/07 10:53:54;;;;;;;2.35;1.40;;;20.30;99.90;;;;;;5050142;28;20505;-74
2022/08/07 10:56:44;;;;;;;11.05;1.58;;;19.70;99.90;;;;;;5032959;28;20045;-73
2022/08/07 10:59:38;;;;;;;4.35;1.70;;;19.70;99.90;;;;;;5050286;28;20083;-73
2022/08/07 11:02:15;;;;;;;;;;;19.80;99.90;;;;;;4983816;28;20050;-73
2022/08/07 11:04:56;;;;;;;8.93;2.15;;;19.80;99.90;;;;;;5032957;28;20415;-72
2022/08/07 11:07:37;;;;;;;7.35;1.75;;;20.00;99.90;;;;;;5046001;28;20053;-72
2022/08/07 11:10:17;;;;;;;1.10;1.10;;;20.00;99.90;;;;;;5026878;28;20076;-74
2022/08/07 11:12:50;;;;;;;0.95;0.95;;;20.20;99.90;;;;;;5025513;28;20128;-75
2022/08/07 11:15:23;;;;;;;0.77;0.77;;;20.30;99.90;;;;;;5031716;28;20037;-74
2022/08/07 11:18:07;;;;;;;4.90;1.13;;;20.40;99.90;;;;;;5027534;28;20045;-74
2022/08/07 11:20:55;;;;;;;3.83;0.80;;;20.50;99.90;;;;;;5032651;28;20392;-74
2022/08/07 11:23:37;;;;;;;1.17;1.08;;;20.60;99.90;;;;;;5049520;28;20123;-74
2022/08/07 11:26:19;;;;;;;2.05;1.20;;;20.50;99.60;;;;;;5031937;28;20354;-75
2022/08/07 11:29:03;;;;;;;6.63;1.20;;;20.50;99.90;;;;;;5044320;28;20037;-75
2022/08/07 11:31:47;;;;;;;1.80;1.70;;;20.60;99.90;;;;;;5049679;28;20048;-74
2022/08/07 11:34:37;;;;;;;4.43;1.20;;;20.70;99.90;;;;;;5032336;28;20083;-74
2022/08/07 11:37:18;;;;;;;5.25;1.35;;;20.70;99.90;;;;;;5019496;28;20048;-74
2022/08/07 11:40:22;;;;;;;2.30;1.27;;;20.60;99.90;;;;;;5047789;28;20048;-74
2022/08/07 11:43:14;;;;;;;2.17;1.33;;;20.50;99.90;;;;;;5042609;28;20158;-73
2022/08/07 11:45:39;;;;;;;2.95;1.10;;;20.50;99.90;;;;;;5048319;28;20075;-74
2022/08/07 11:48:08;;;;;;;0.80;0.80;;;20.70;99.90;;;;;;5048538;28;20433;-73
2022/08/07 11:51:03;;;;;;;1.95;0.93;;;20.90;99.60;;;;;;5044856;28;20053;-74
2022/08/07 11:53:50;;;;;;;1.33;0.88;;;21.10;99.40;;;;;;5049196;28;20578;-74
2022/08/07 11:56:44;;;;;;;2.25;1.15;;;21.30;99.10;;;;;;5031675;28;20045;-74
2022/08/07 11:59:36;;;;;;;5.03;1.38;;;21.50;98.80;;;;;;5046565;28;20045;-73
2022/08/07 12:02:27;;;;;;;8.13;1.73;;;21.60;98.30;;;;;;5046583;28;20087;-73
2022/08/07 12:05:06;;;;;;;1.52;1.10;;;21.70;98.10;;;;;;5041752;28;20116;-74
2022/08/07 12:07:53;;;;;;;2.38;1.27;;;21.90;97.50;;;;;;5044916;28;20076;-74
2022/08/07 12:10:39;;;;;;;1.45;0.90;;;21.90;97.00;;;;;;5044576;28;20040;-73
2022/08/07 12:13:15;;;;;;;3.25;1.17;;;22.00;97.20;;;;;;5024323;28;20032;-73
2022/08/07 12:15:48;;;;;;;2.97;1.57;;;22.10;97.30;;;;;;4696470;28;10000948;-73
2022/08/07 12:18:36;;;;;;;4.88;1.27;;;22.10;97.80;;;;;;5040791;28;20367;-74
2022/08/07 12:21:24;;;;;;;2.92;1.23;;;22.10;98.00;;;;;;5045370;28;20037;-75
2022/08/07 12:23:53;;;;;;;6.88;1.27;;;22.30;98.30;;;;;;5027967;28;20043;-74
2022/08/07 12:26:54;;;;;;;2.25;0.88;;;22.40;97.80;;;;;;5023727;28;20055;-74
2022/08/07 12:29:47;;;;;;;1.50;1.20;;;22.40;97.60;;;;;;5024563;28;20063;-74
2022/08/07 12:32:19;;;;;;;5.22;1.60;;;22.20;97.50;;;;;;5009779;28;20098;-73
2022/08/07 12:34:48;;;;;;;16.55;2.20;;;22.00;97.70;;;;;;5045190;28;20130;-75
2022/08/07 12:37:16;;;;;;;13.48;2.40;;;21.90;97.90;;;;;;5007874;28;20036;-75
2022/08/07 12:39:45;;;;;;;8.82;4.05;;;21.80;97.90;;;;;;5045188;28;20047;-74
2022/08/07 12:42:13;;;;;;;3.92;3.58;;;21.70;98.10;;;;;;5046493;28;20577;-75
2022/08/07 12:44:44;;;;;;;14.98;3.63;;;21.60;98.40;;;;;;5027268;28;20049;-73
2022/08/07 12:47:55;;;;;;;18.63;2.90;;;21.50;98.50;;;;;;5044985;28;20333;-72
2022/08/07 12:50:27;;;;;;;9.80;1.98;;;21.50;98.50;;;;;;5045607;28;20064;-72
2022/08/07 12:52:58;;;;;;;2.38;1.50;;;21.40;98.80;;;;;;5026143;28;20077;-73
2022/08/07 12:55:39;;;;;;;7.80;3.05;;;21.40;99.00;;;;;;5046717;28;20132;-73
2022/08/07 12:58:06;;;;;;;2.00;1.77;;;21.40;99.20;;;;;;5033350;28;20047;-73
2022/08/07 13:00:50;;;;;;;2.38;1.65;;;21.40;99.60;;;;;;5045237;28;20036;-73
2022/08/07 13:03:50;;;;;;;5.68;1.73;;;21.40;99.80;;;;;;5039694;28;20041;-72
2022/08/07 13:06:37;;;;;;;3.00;1.85;;;21.40;99.90;;;;;;5039478;28;20085;-73
2022/08/07 13:09:11;;;;;;;2.47;1.92;;;21.70;99.90;;;;;;5040885;28;20064;-72
2022/08/07 13:12:10;;;;;;;4.47;1.90;;;21.90;99.90;;;;;;5028406;28;20148;-73
2022/08/07 13:15:01;;;;;;;4.50;2.28;;;22.10;99.60;;;;;;5042336;28;20068;-73
2022/08/07 13:17:54;;;;;;;2.30;1.67;;;22.20;98.70;;;;;;5045775;28;20052;-76
2022/08/07 13:20:42;;;;;;;2.47;2.13;;;22.30;99.00;;;;;;4986357;28;20061;-75
2022/08/07 13:23:10;;;;;;;12.63;9.57;;;22.60;98.20;;;;;;5020552;28;20041;-73
2022/08/07 13:25:55;;;;;;;6.50;3.00;;;22.50;97.90;;;;;;5028514;28;20535;-75